Terminal Aerodrome Forecast
Issued by NWS Cleveland, OH

Home | Current Version | Previous Version | Graphics & Text | Print | Product List | Glossary On
Versions: 1 2 3 4 5 6 7 8 9 10 11 12 13 14 15 16 17
496
FTUS41 KCLE 172343
TAFCAK
TAF
KCAK 172343Z 1800/1824 VRB03KT 4SM -SN OVC008
     FM180200 25006KT 4SM -SN OVC007
     FM180700 27008KT P6SM OVC007
     FM181000 28006KT P6SM OVC015
     FM181500 31005KT P6SM SCT250
     FM181900 19008KT P6SM SCT250=

USA.gov is the U.S. government's official web portal to all federal, state and local government web resources and services.